Time;durP1;ratioP1;P1;durP2;ratioP2;P2;SDS_P1;SDS_P2;PMS_P1;PMS_P2;Temp;Humidity;BMP_temperature;BMP_pressure;BME280_temperature;BME280_humidity;BME280_pressure;Samples;Min_cycle;Max_cycle;Signal;HPM_P1;HPM_P2
2023/12/14 00:00:08;;;;;;;2.45;1.42;;;5.30;99.90;;;;;;5114063;28;20036;-62
2023/12/14 00:02:34;;;;;;;2.60;1.42;;;5.20;99.90;;;;;;5113940;28;20036;-62
2023/12/14 00:04:59;;;;;;;3.45;1.30;;;5.30;99.90;;;;;;5114103;28;20467;-62
2023/12/14 00:07:25;;;;;;;2.80;1.65;;;5.30;99.90;;;;;;5114431;28;20024;-61
2023/12/14 00:09:50;;;;;;;3.58;1.52;;;5.30;99.90;;;;;;5114062;28;20032;-61
2023/12/14 00:12:16;;;;;;;3.97;1.60;;;5.30;99.90;;;;;;5113613;28;20027;-61
2023/12/14 00:14:42;;;;;;;2.70;1.63;;;5.30;99.90;;;;;;5095252;28;20020;-62
2023/12/14 00:17:07;;;;;;;3.55;1.83;;;5.30;99.90;;;;;;5111246;28;20030;-61
2023/12/14 00:19:33;;;;;;;4.03;2.08;;;5.40;99.90;;;;;;5113766;28;20047;-62
2023/12/14 00:21:58;;;;;;;3.47;1.88;;;5.30;99.90;;;;;;5113269;28;20088;-64
2023/12/14 00:24:24;;;;;;;4.07;1.83;;;5.30;99.90;;;;;;5114418;28;20093;-62
2023/12/14 00:26:50;;;;;;;2.33;1.67;;;5.30;99.90;;;;;;5113545;28;20531;-62
2023/12/14 00:29:15;;;;;;;3.30;1.65;;;5.30;99.90;;;;;;5113521;28;20111;-62
2023/12/14 00:31:41;;;;;;;2.58;1.77;;;5.30;99.90;;;;;;5123018;27;20039;-62
2023/12/14 00:34:07;;;;;;;3.55;1.60;;;5.30;99.90;;;;;;5119298;27;20026;-62
2023/12/14 00:36:32;;;;;;;2.47;1.60;;;5.30;99.90;;;;;;5113520;28;20080;-62
2023/12/14 00:38:58;;;;;;;2.42;1.55;;;5.30;99.90;;;;;;5113308;28;20157;-62
2023/12/14 00:41:24;;;;;;;6.68;1.90;;;5.30;99.90;;;;;;5113680;28;20028;-62
2023/12/14 00:43:49;;;;;;;2.67;1.40;;;5.30;99.90;;;;;;5113530;28;20463;-62
2023/12/14 00:46:15;;;;;;;3.10;1.42;;;5.30;99.90;;;;;;5112949;28;20107;-62
2023/12/14 00:48:40;;;;;;;3.05;1.65;;;5.40;99.90;;;;;;5111586;27;20027;-62
2023/12/14 00:51:06;;;;;;;3.03;1.60;;;5.30;99.90;;;;;;5112364;28;20522;-62
2023/12/14 00:53:32;;;;;;;3.67;1.67;;;5.30;99.90;;;;;;5113128;28;20024;-62
2023/12/14 00:55:57;;;;;;;4.95;1.83;;;5.40;99.90;;;;;;5112400;28;20110;-62
2023/12/14 00:58:23;;;;;;;4.15;1.30;;;5.40;99.90;;;;;;5113233;28;20389;-62
2023/12/14 01:00:48;;;;;;;3.35;1.50;;;5.40;99.90;;;;;;5113260;28;20104;-61
2023/12/14 01:03:14;;;;;;;2.03;1.40;;;5.40;99.90;;;;;;5112173;28;20058;-62
2023/12/14 01:05:40;;;;;;;2.20;1.63;;;5.40;99.90;;;;;;5113346;28;20024;-62
2023/12/14 01:08:05;;;;;;;2.33;1.65;;;5.40;99.90;;;;;;5111787;28;20023;-62
2023/12/14 01:10:31;;;;;;;2.85;1.60;;;5.40;99.90;;;;;;5113276;28;20036;-62
2023/12/14 01:12:57;;;;;;;3.85;1.52;;;5.40;99.90;;;;;;5112883;28;20011;-63
2023/12/14 01:15:22;;;;;;;3.17;1.48;;;5.40;99.90;;;;;;5112314;28;20095;-62
2023/12/14 01:17:48;;;;;;;4.47;1.60;;;5.40;99.90;;;;;;5109819;28;20047;-62
2023/12/14 01:20:13;;;;;;;5.80;1.45;;;5.40;99.90;;;;;;5112147;28;20385;-62
2023/12/14 01:22:39;;;;;;;2.50;1.33;;;5.50;99.90;;;;;;5112331;28;20085;-62
2023/12/14 01:25:04;;;;;;;3.05;1.50;;;5.50;99.90;;;;;;5112480;28;20023;-62
2023/12/14 01:27:30;;;;;;;4.05;1.50;;;5.50;99.90;;;;;;5112907;28;20093;-62
2023/12/14 01:29:55;;;;;;;3.17;1.10;;;5.50;99.90;;;;;;5113330;28;20036;-63
2023/12/14 01:32:21;;;;;;;2.15;1.20;;;5.50;99.90;;;;;;5111965;28;20023;-62
2023/12/14 01:34:47;;;;;;;3.92;1.77;;;5.50;99.90;;;;;;5111841;28;20023;-63
2023/12/14 01:37:12;;;;;;;5.22;1.50;;;5.50;99.90;;;;;;5111891;28;20020;-63
2023/12/14 01:39:38;;;;;;;3.30;1.30;;;5.50;99.90;;;;;;5094437;28;20104;-62
2023/12/14 01:42:04;;;;;;;3.60;1.60;;;5.50;99.90;;;;;;5111512;28;20024;-63
2023/12/14 01:44:29;;;;;;;2.67;1.33;;;5.40;99.90;;;;;;5112701;28;20024;-62
2023/12/14 01:46:55;;;;;;;3.60;1.30;;;5.40;99.90;;;;;;5109698;28;20043;-62
2023/12/14 01:49:20;;;;;;;4.13;1.30;;;5.40;99.90;;;;;;5111302;28;20051;-62
2023/12/14 01:51:46;;;;;;;3.35;1.50;;;5.40;99.90;;;;;;5111852;28;20080;-62
2023/12/14 01:54:12;;;;;;;2.78;1.45;;;5.40;99.90;;;;;;5111632;28;20035;-62
2023/12/14 01:56:38;;;;;;;3.22;1.30;;;5.40;99.90;;;;;;5111852;28;20034;-62
2023/12/14 01:59:04;;;;;;;2.50;1.60;;;5.40;99.90;;;;;;5123552;27;20376;-62
2023/12/14 02:01:51;;;;;;;1.50;1.30;;;5.40;99.90;;;;;;5111490;28;20081;-62
2023/12/14 02:04:17;;;;;;;2.53;1.40;;;5.40;99.90;;;;;;5111545;28;20151;-62
2023/12/14 02:06:43;;;;;;;3.00;1.40;;;5.50;99.90;;;;;;5111079;28;20026;-62
2023/12/14 02:09:09;;;;;;;4.03;1.50;;;5.40;99.90;;;;;;5111479;28;20034;-62
2023/12/14 02:11:35;;;;;;;3.33;1.85;;;5.40;99.90;;;;;;5111495;28;20024;-62
2023/12/14 02:14:05;;;;;;;2.42;1.40;;;5.40;99.90;;;;;;5103732;28;20028;-63
2023/12/14 02:16:31;;;;;;;3.38;1.48;;;5.30;99.90;;;;;;5102436;28;20052;-62
2023/12/14 02:18:57;;;;;;;3.63;1.30;;;5.30;99.90;;;;;;5109363;28;20162;-62
2023/12/14 02:21:22;;;;;;;1.77;1.50;;;5.30;99.90;;;;;;5108582;28;20528;-62
2023/12/14 02:23:48;;;;;;;4.13;1.30;;;5.30;99.90;;;;;;5111530;28;20028;-62
2023/12/14 02:26:14;;;;;;;2.47;1.52;;;5.30;99.90;;;;;;5109320;28;20027;-62
2023/12/14 02:28:40;;;;;;;5.28;1.75;;;5.40;99.90;;;;;;5112045;28;20102;-63
2023/12/14 02:31:05;;;;;;;2.75;1.67;;;5.40;99.90;;;;;;5110322;28;20126;-63
2023/12/14 02:33:31;;;;;;;2.90;1.40;;;5.40;99.90;;;;;;5111952;28;20111;-63
2023/12/14 02:35:57;;;;;;;2.75;1.30;;;5.40;99.90;;;;;;5111298;28;20586;-63
2023/12/14 02:38:23;;;;;;;2.00;1.00;;;5.40;99.90;;;;;;5110924;28;20080;-62
2023/12/14 02:40:50;;;;;;;3.50;1.33;;;5.40;99.90;;;;;;5111784;28;20088;-62
2023/12/14 02:43:16;;;;;;;1.90;1.05;;;5.40;99.90;;;;;;5110178;28;20091;-62
2023/12/14 02:45:42;;;;;;;4.28;1.13;;;5.40;99.90;;;;;;5111665;28;20479;-62
2023/12/14 02:48:07;;;;;;;2.83;1.17;;;5.40;99.90;;;;;;5108610;27;20115;-62
2023/12/14 02:50:33;;;;;;;1.38;1.13;;;5.40;99.90;;;;;;5110141;28;20035;-62
2023/12/14 02:52:58;;;;;;;5.78;1.63;;;5.40;99.90;;;;;;5110373;28;20028;-62
2023/12/14 02:55:24;;;;;;;3.40;1.15;;;5.30;99.90;;;;;;5111532;28;20487;-62
2023/12/14 02:57:49;;;;;;;1.75;1.40;;;5.40;99.90;;;;;;5111221;28;20039;-62
2023/12/14 03:00:15;;;;;;;2.33;1.05;;;5.40;99.90;;;;;;5110510;28;20063;-62
2023/12/14 03:02:41;;;;;;;3.00;1.40;;;5.40;99.90;;;;;;5110706;28;20051;-62
2023/12/14 03:05:07;;;;;;;1.73;1.33;;;5.40;99.90;;;;;;5110370;28;20023;-63
2023/12/14 03:07:32;;;;;;;2.75;1.42;;;5.40;99.90;;;;;;5110733;28;20027;-62
2023/12/14 03:09:58;;;;;;;4.15;1.55;;;5.40;99.90;;;;;;5111092;28;20057;-63
2023/12/14 03:12:24;;;;;;;2.90;1.13;;;5.50;99.90;;;;;;5110639;28;20092;-62
2023/12/14 03:14:49;;;;;;;1.35;1.10;;;5.50;99.90;;;;;;5101162;28;20031;-62
2023/12/14 03:17:16;;;;;;;1.27;1.10;;;5.50;99.90;;;;;;5111206;27;20077;-62
2023/12/14 03:19:42;;;;;;;2.33;1.20;;;5.50;99.90;;;;;;5119661;27;20519;-62
2023/12/14 03:22:08;;;;;;;2.15;1.05;;;5.50;99.90;;;;;;5109868;28;20491;-62
2023/12/14 03:24:35;;;;;;;2.85;1.10;;;5.50;99.90;;;;;;5111148;28;20062;-62
2023/12/14 03:27:02;;;;;;;3.30;1.08;;;5.50;99.90;;;;;;5109862;28;20031;-63
2023/12/14 03:29:28;;;;;;;1.80;0.88;;;5.50;99.90;;;;;;5111265;28;20376;-62
2023/12/14 03:31:54;;;;;;;3.67;1.40;;;5.60;99.90;;;;;;5110172;28;20032;-62
2023/12/14 03:34:20;;;;;;;3.85;1.13;;;5.60;99.90;;;;;;5110077;28;20805;-62
2023/12/14 03:36:46;;;;;;;2.83;0.90;;;5.60;99.90;;;;;;5110027;28;20110;-62
2023/12/14 03:39:11;;;;;;;2.50;1.20;;;5.60;99.90;;;;;;5091928;28;20047;-62
2023/12/14 03:41:37;;;;;;;1.83;0.95;;;5.60;99.90;;;;;;5110374;28;20035;-62
2023/12/14 03:44:03;;;;;;;1.50;0.98;;;5.60;99.90;;;;;;5110351;28;20016;-62
2023/12/14 03:46:29;;;;;;;1.52;0.90;;;5.60;99.90;;;;;;5110020;28;20036;-62
2023/12/14 03:48:55;;;;;;;1.70;0.98;;;5.60;99.90;;;;;;5109177;28;20129;-62
2023/12/14 03:51:21;;;;;;;1.92;0.90;;;5.60;99.90;;;;;;5109250;28;20103;-62
2023/12/14 03:53:46;;;;;;;1.83;1.00;;;5.60;99.90;;;;;;5111033;28;20516;-62
2023/12/14 03:56:12;;;;;;;2.47;1.25;;;5.60;99.90;;;;;;5118385;28;20031;-63
2023/12/14 03:58:38;;;;;;;1.73;1.20;;;5.60;99.90;;;;;;5111131;28;20024;-62
2023/12/14 04:01:04;;;;;;;4.97;1.10;;;5.60;99.90;;;;;;5110003;28;20023;-62
2023/12/14 04:03:29;;;;;;;1.83;1.20;;;5.60;99.90;;;;;;5110667;28;20085;-62
2023/12/14 04:05:55;;;;;;;1.20;1.10;;;5.60;99.90;;;;;;5110744;28;20020;-63
2023/12/14 04:08:20;;;;;;;2.40;1.17;;;5.60;99.90;;;;;;5109101;28;20027;-62
2023/12/14 04:10:46;;;;;;;1.92;1.33;;;5.60;99.90;;;;;;5092541;28;20457;-62
2023/12/14 04:13:11;;;;;;;3.03;1.10;;;5.60;99.90;;;;;;5109160;28;20046;-63
2023/12/14 04:15:37;;;;;;;5.63;1.42;;;5.60;99.90;;;;;;5100854;28;20125;-62
2023/12/14 04:18:03;;;;;;;1.08;0.90;;;5.60;99.90;;;;;;5106817;28;20074;-62
2023/12/14 04:20:28;;;;;;;1.92;1.30;;;5.60;99.90;;;;;;5110549;28;20535;-62
2023/12/14 04:22:54;;;;;;;2.35;1.30;;;5.60;99.90;;;;;;5109839;28;20464;-62
2023/12/14 04:25:20;;;;;;;2.05;1.27;;;5.70;99.90;;;;;;5109675;28;20460;-62
2023/12/14 04:27:45;;;;;;;2.00;1.13;;;5.60;99.90;;;;;;5091810;28;20031;-62
2023/12/14 04:30:11;;;;;;;1.90;1.50;;;5.60;99.90;;;;;;5109099;28;20051;-62
2023/12/14 04:32:40;;;;;;;2.55;1.58;;;5.60;99.90;;;;;;5110999;28;20045;-62
2023/12/14 04:35:06;;;;;;;4.50;1.10;;;5.60;99.90;;;;;;5121682;28;20023;-62
2023/12/14 04:37:32;;;;;;;2.13;1.42;;;5.60;99.90;;;;;;5109780;28;20038;-63
2023/12/14 04:39:58;;;;;;;2.10;1.90;;;5.60;99.90;;;;;;5109930;28;20039;-63
2023/12/14 04:42:23;;;;;;;3.08;1.73;;;5.60;99.90;;;;;;5109578;28;20039;-63
2023/12/14 04:44:49;;;;;;;4.90;2.03;;;5.60;99.90;;;;;;5113925;28;20031;-62
2023/12/14 04:47:15;;;;;;;4.78;1.80;;;5.60;99.90;;;;;;5115279;27;20081;-62
2023/12/14 04:49:40;;;;;;;2.80;2.15;;;5.60;99.90;;;;;;5123522;27;20365;-62
2023/12/14 04:52:06;;;;;;;4.28;1.98;;;5.60;99.90;;;;;;5112709;28;20023;-63
2023/12/14 04:54:32;;;;;;;2.50;2.00;;;5.70;99.90;;;;;;5113517;28;20057;-63
2023/12/14 04:56:58;;;;;;;4.85;2.40;;;5.70;99.90;;;;;;5112049;28;20024;-62
2023/12/14 04:59:24;;;;;;;4.05;2.40;;;5.70;99.90;;;;;;5107208;27;20044;-62
2023/12/14 05:01:49;;;;;;;8.15;3.58;;;5.70;99.90;;;;;;5113082;28;20088;-62
2023/12/14 05:04:15;;;;;;;5.18;2.85;;;5.70;99.90;;;;;;5112486;28;20644;-62
2023/12/14 05:06:41;;;;;;;5.80;3.20;;;5.70;99.90;;;;;;5112991;28;20028;-62
2023/12/14 05:09:06;;;;;;;5.63;3.42;;;5.70;99.90;;;;;;5112723;28;20023;-62
2023/12/14 05:11:32;;;;;;;4.13;3.03;;;5.70;99.90;;;;;;5113126;28;20047;-62
2023/12/14 05:13:58;;;;;;;6.32;3.28;;;5.80;99.90;;;;;;5105867;28;20028;-62
2023/12/14 05:16:27;;;;;;;6.32;3.55;;;5.80;99.90;;;;;;5111028;28;20099;-63
2023/12/14 05:18:56;;;;;;;6.03;3.58;;;5.80;99.90;;;;;;5110955;28;20133;-61
2023/12/14 05:21:22;;;;;;;4.57;3.40;;;5.80;99.90;;;;;;5112346;28;20027;-62
2023/12/14 05:23:48;;;;;;;6.85;4.00;;;5.90;99.90;;;;;;5113308;28;20031;-62
2023/12/14 05:26:14;;;;;;;4.85;3.63;;;5.90;99.90;;;;;;5112025;28;20023;-62
2023/12/14 05:28:40;;;;;;;6.80;4.10;;;5.90;99.90;;;;;;5113161;28;20392;-62
2023/12/14 05:31:06;;;;;;;4.47;4.05;;;5.90;99.90;;;;;;5111465;28;20023;-62
2023/12/14 05:33:33;;;;;;;6.47;4.22;;;6.00;99.90;;;;;;5112682;28;20057;-62
2023/12/14 05:35:59;;;;;;;5.85;4.75;;;5.90;99.90;;;;;;5112576;28;20157;-62
2023/12/14 05:38:24;;;;;;;5.97;4.70;;;6.00;99.90;;;;;;5112506;28;20111;-62
2023/12/14 05:40:50;;;;;;;10.13;4.68;;;6.00;99.90;;;;;;5112960;28;20031;-61
2023/12/14 05:43:16;;;;;;;8.48;5.45;;;6.00;99.90;;;;;;5111596;28;20024;-62
2023/12/14 05:45:41;;;;;;;8.88;4.43;;;6.00;99.90;;;;;;5112802;28;20050;-62
2023/12/14 05:48:07;;;;;;;5.15;4.50;;;6.00;99.90;;;;;;5106426;28;20052;-62
2023/12/14 05:50:33;;;;;;;8.35;4.60;;;6.00;99.90;;;;;;5093580;28;20048;-61
2023/12/14 05:52:58;;;;;;;7.53;4.32;;;6.00;99.90;;;;;;5111607;28;20479;-62
2023/12/14 05:55:24;;;;;;;8.30;4.97;;;6.00;99.90;;;;;;5111652;28;20034;-62
2023/12/14 05:57:49;;;;;;;6.38;4.57;;;6.10;99.90;;;;;;5112192;28;20834;-62
2023/12/14 06:00:15;;;;;;;8.95;5.13;;;6.00;99.90;;;;;;5111255;27;20093;-62
2023/12/14 06:02:41;;;;;;;8.98;5.03;;;6.00;99.90;;;;;;5110585;28;20036;-62
2023/12/14 06:05:08;;;;;;;11.77;5.78;;;6.00;99.90;;;;;;5111337;28;20027;-62
2023/12/14 06:07:33;;;;;;;13.15;6.60;;;6.00;99.90;;;;;;5111214;28;20429;-62
2023/12/14 06:10:00;;;;;;;11.43;6.20;;;6.00;99.90;;;;;;5093454;28;20028;-62
2023/12/14 06:12:26;;;;;;;12.82;6.57;;;5.90;99.90;;;;;;5111660;28;20020;-62
2023/12/14 06:14:52;;;;;;;11.07;6.60;;;6.00;99.90;;;;;;5101843;28;20111;-62
2023/12/14 06:17:17;;;;;;;11.38;6.13;;;6.00;99.90;;;;;;5109525;28;20030;-62
2023/12/14 06:19:43;;;;;;;10.48;5.95;;;6.00;99.90;;;;;;5111478;28;20070;-62
2023/12/14 06:22:09;;;;;;;13.90;6.20;;;5.90;99.90;;;;;;5111244;28;20032;-64
2023/12/14 06:24:34;;;;;;;8.98;6.22;;;5.90;99.90;;;;;;5111749;28;20031;-64
2023/12/14 06:27:00;;;;;;;8.85;5.70;;;5.90;99.90;;;;;;5111055;28;20369;-65
2023/12/14 06:29:26;;;;;;;10.10;5.90;;;5.90;99.90;;;;;;5112513;28;20168;-61
2023/12/14 06:31:52;;;;;;;9.13;5.05;;;5.90;99.90;;;;;;5111312;27;20039;-63
2023/12/14 06:34:17;;;;;;;8.05;5.40;;;5.90;99.90;;;;;;5111137;28;20026;-63
2023/12/14 06:36:44;;;;;;;9.35;4.65;;;5.90;99.90;;;;;;5104710;27;20023;-63
2023/12/14 06:39:10;;;;;;;9.00;6.05;;;5.90;99.90;;;;;;5109446;28;20616;-69
2023/12/14 06:41:36;;;;;;;8.60;5.45;;;5.90;99.90;;;;;;5110374;28;20028;-63
2023/12/14 06:44:02;;;;;;;8.55;5.13;;;5.90;99.90;;;;;;5105655;28;20038;-63
2023/12/14 06:46:28;;;;;;;7.85;5.10;;;6.00;99.90;;;;;;5095812;28;20162;-62
2023/12/14 06:48:55;;;;;;;9.98;5.45;;;5.90;99.90;;;;;;5107086;28;20110;-63
2023/12/14 06:51:20;;;;;;;8.27;5.65;;;5.90;99.90;;;;;;5108542;28;20031;-63
2023/12/14 06:53:47;;;;;;;9.05;5.93;;;5.90;99.90;;;;;;5092736;28;20027;-63
2023/12/14 06:56:13;;;;;;;14.75;5.82;;;5.90;99.90;;;;;;5108897;28;20104;-63
2023/12/14 06:58:40;;;;;;;11.38;6.55;;;5.90;99.90;;;;;;5110855;28;20085;-63
2023/12/14 07:01:06;;;;;;;9.00;5.80;;;6.00;99.90;;;;;;5103613;28;20039;-62
2023/12/14 07:03:32;;;;;;;8.60;5.80;;;6.00;99.90;;;;;;5111078;28;20084;-63
2023/12/14 07:05:58;;;;;;;9.80;5.60;;;6.00;99.90;;;;;;5101211;28;20461;-61
2023/12/14 07:08:24;;;;;;;10.18;6.80;;;6.00;99.90;;;;;;5117153;27;20110;-61
2023/12/14 07:10:49;;;;;;;8.27;6.88;;;6.00;99.90;;;;;;5103746;28;20130;-62
2023/12/14 07:13:15;;;;;;;8.65;6.78;;;6.10;99.90;;;;;;5097333;28;20247;-60
2023/12/14 07:15:40;;;;;;;10.32;6.63;;;6.10;99.90;;;;;;5106926;28;20036;-61
2023/12/14 07:18:06;;;;;;;9.80;6.53;;;6.10;99.90;;;;;;5103971;28;20052;-61
2023/12/14 07:20:32;;;;;;;9.38;6.65;;;6.10;99.90;;;;;;5087615;28;20377;-61
2023/12/14 07:22:57;;;;;;;12.77;7.35;;;6.10;99.90;;;;;;5085693;28;20028;-60
2023/12/14 07:25:23;;;;;;;10.55;6.97;;;6.10;99.90;;;;;;5082352;28;20032;-62
2023/12/14 07:27:49;;;;;;;11.82;6.20;;;6.10;99.90;;;;;;5091081;28;20071;-61
2023/12/14 07:30:14;;;;;;;12.57;6.45;;;6.20;99.90;;;;;;5088674;28;20529;-61
2023/12/14 07:32:40;;;;;;;14.73;7.88;;;6.20;99.90;;;;;;5089843;28;20029;-61
2023/12/14 07:35:06;;;;;;;13.98;8.30;;;6.20;99.90;;;;;;5089550;28;20026;-61
2023/12/14 07:37:32;;;;;;;11.20;7.72;;;6.20;99.90;;;;;;5087145;28;20040;-61
2023/12/14 07:39:58;;;;;;;11.48;7.68;;;6.20;99.90;;;;;;5090176;28;20032;-61
2023/12/14 07:42:24;;;;;;;13.70;7.88;;;6.20;99.90;;;;;;5086590;28;20024;-61
2023/12/14 07:44:49;;;;;;;10.10;6.50;;;6.20;99.90;;;;;;5090604;28;20028;-61
2023/12/14 07:47:15;;;;;;;9.80;6.35;;;6.20;99.90;;;;;;5078137;28;20094;-60
2023/12/14 07:49:41;;;;;;;11.80;6.65;;;6.30;99.90;;;;;;5091470;28;20028;-62
2023/12/14 07:52:06;;;;;;;6.85;5.63;;;6.30;99.90;;;;;;5086872;28;20067;-63
2023/12/14 07:54:32;;;;;;;12.52;6.30;;;6.20;99.90;;;;;;5090389;28;20024;-64
2023/12/14 07:56:58;;;;;;;11.27;6.60;;;6.30;99.90;;;;;;5078831;28;20048;-62
2023/12/14 07:59:24;;;;;;;9.70;6.20;;;6.30;99.90;;;;;;5079842;28;20066;-62
2023/12/14 08:01:49;;;;;;;8.98;5.55;;;6.40;99.90;;;;;;5088241;28;20564;-62
2023/12/14 08:04:15;;;;;;;8.23;5.22;;;6.40;99.90;;;;;;5076368;28;20096;-62
2023/12/14 08:06:40;;;;;;;7.90;5.93;;;6.40;99.90;;;;;;5079407;28;20102;-62
2023/12/14 08:09:06;;;;;;;8.52;5.63;;;6.50;99.90;;;;;;5093714;28;20055;-62
2023/12/14 08:11:33;;;;;;;9.63;5.97;;;6.40;99.90;;;;;;5096615;28;20067;-62
2023/12/14 08:13:58;;;;;;;8.02;5.38;;;6.40;99.90;;;;;;5079040;28;20039;-63
2023/12/14 08:16:24;;;;;;;6.47;5.22;;;6.40;99.90;;;;;;5087131;28;20051;-62
2023/12/14 08:18:50;;;;;;;8.75;5.47;;;6.40;99.90;;;;;;5085425;28;20080;-62
2023/12/14 08:21:16;;;;;;;8.60;5.68;;;6.40;99.90;;;;;;5100172;28;20028;-62
2023/12/14 08:23:42;;;;;;;7.90;5.38;;;6.30;99.90;;;;;;5112508;28;20030;-62
2023/12/14 08:26:10;;;;;;;8.70;7.00;;;6.30;99.90;;;;;;5106218;28;20028;-62
2023/12/14 08:28:36;;;;;;;9.80;5.78;;;6.30;99.90;;;;;;5112377;28;20019;-62
2023/12/14 08:31:02;;;;;;;8.00;6.18;;;6.40;99.90;;;;;;5106028;28;20039;-62
2023/12/14 08:33:29;;;;;;;8.15;6.28;;;6.50;99.90;;;;;;5114972;27;20054;-63
2023/12/14 08:35:55;;;;;;;8.43;7.10;;;6.50;99.90;;;;;;5109439;28;20024;-62
2023/12/14 08:38:21;;;;;;;7.68;6.30;;;6.60;99.90;;;;;;5090077;28;20411;-62
2023/12/14 08:40:46;;;;;;;8.32;6.00;;;6.70;99.90;;;;;;5093952;28;20039;-61
2023/12/14 08:43:12;;;;;;;9.07;5.85;;;6.60;99.90;;;;;;5118206;27;20059;-62
2023/12/14 08:45:38;;;;;;;10.50;6.82;;;6.70;99.90;;;;;;5094546;28;20362;-61
2023/12/14 08:48:04;;;;;;;8.63;6.45;;;6.70;99.90;;;;;;5106358;28;20132;-62
2023/12/14 08:50:29;;;;;;;10.00;6.35;;;6.80;99.90;;;;;;5118982;27;20031;-62
2023/12/14 08:52:55;;;;;;;6.93;5.55;;;6.80;99.90;;;;;;5096544;28;20480;-61
2023/12/14 08:55:21;;;;;;;10.32;6.32;;;6.90;99.90;;;;;;5112521;28;20024;-61
2023/12/14 08:57:47;;;;;;;7.50;5.65;;;6.90;99.90;;;;;;5098105;28;20499;-62
2023/12/14 09:00:15;;;;;;;8.88;6.20;;;7.00;99.90;;;;;;5093636;28;20020;-61
2023/12/14 09:02:41;;;;;;;10.05;6.50;;;7.00;99.90;;;;;;5117380;27;20085;-61
2023/12/14 09:05:08;;;;;;;9.32;7.13;;;7.00;99.90;;;;;;5104735;28;20419;-61
2023/12/14 09:07:33;;;;;;;8.93;7.10;;;7.10;99.90;;;;;;5102962;28;20481;-61
2023/12/14 09:09:59;;;;;;;11.70;7.75;;;7.10;99.90;;;;;;5113215;28;20039;-62
2023/12/14 09:12:25;;;;;;;9.23;7.30;;;7.10;99.90;;;;;;5099611;28;20081;-62
2023/12/14 09:14:50;;;;;;;8.75;7.38;;;7.10;99.90;;;;;;5105043;28;20386;-62
2023/12/14 09:17:16;;;;;;;8.70;7.25;;;7.20;99.90;;;;;;5107995;28;20024;-62
2023/12/14 09:19:41;;;;;;;11.45;8.00;;;7.30;99.90;;;;;;5111156;28;20054;-62
2023/12/14 09:22:07;;;;;;;9.40;7.65;;;7.40;99.90;;;;;;5107241;27;20023;-62
2023/12/14 09:24:33;;;;;;;9.63;7.45;;;7.50;99.90;;;;;;5104415;28;20023;-61
2023/12/14 09:26:58;;;;;;;10.35;6.97;;;7.60;99.90;;;;;;5108615;28;20023;-61
2023/12/14 09:29:24;;;;;;;11.40;7.05;;;7.70;99.90;;;;;;5111439;28;20202;-61
2023/12/14 09:31:50;;;;;;;11.38;7.53;;;7.80;99.90;;;;;;5111957;28;20114;-61
2023/12/14 09:34:15;;;;;;;8.25;7.15;;;7.80;99.90;;;;;;5112037;28;20526;-61
2023/12/14 09:36:41;;;;;;;7.78;6.28;;;7.80;99.90;;;;;;5109556;28;20020;-61
2023/12/14 09:39:10;;;;;;;9.45;6.53;;;7.80;99.90;;;;;;5091241;28;20028;-62
2023/12/14 09:41:38;;;;;;;10.10;6.78;;;7.80;99.90;;;;;;5102685;28;20054;-61
2023/12/14 09:44:05;;;;;;;8.40;6.55;;;7.80;99.90;;;;;;5111859;28;20055;-61
2023/12/14 09:46:32;;;;;;;9.20;6.20;;;7.80;99.90;;;;;;5105659;28;20031;-62
2023/12/14 09:48:59;;;;;;;9.23;6.25;;;7.90;99.90;;;;;;5107257;28;20361;-63
2023/12/14 09:51:26;;;;;;;8.48;6.50;;;8.00;99.90;;;;;;5109124;28;20047;-63
2023/12/14 09:53:57;;;;;;;9.30;6.82;;;8.00;99.90;;;;;;5112710;28;20041;-61
2023/12/14 09:56:27;;;;;;;8.20;6.22;;;8.10;99.90;;;;;;5105026;28;20476;-61
2023/12/14 09:58:53;;;;;;;7.82;6.78;;;8.00;99.90;;;;;;5097927;28;20102;-61
2023/12/14 10:01:26;;;;;;;9.45;7.38;;;8.00;99.90;;;;;;5106240;28;20070;-61
2023/12/14 10:04:16;;;;;;;10.55;7.80;;;8.00;99.90;;;;;;5116427;27;20376;-61
2023/12/14 10:06:43;;;;;;;7.65;5.93;;;8.10;99.90;;;;;;5123095;27;20027;-61
2023/12/14 10:09:13;;;;;;;21.67;8.73;;;8.10;99.90;;;;;;5106685;28;20553;-61
2023/12/14 10:11:39;;;;;;;15.57;9.05;;;8.20;99.90;;;;;;5093219;28;20519;-62
2023/12/14 10:14:25;;;;;;;11.40;8.40;;;8.30;99.90;;;;;;5102278;28;20028;-62
2023/12/14 10:16:51;;;;;;;11.95;8.27;;;8.40;99.90;;;;;;5102833;28;20379;-61
2023/12/14 10:19:18;;;;;;;13.05;8.48;;;8.50;99.90;;;;;;5098048;28;20047;-61
2023/12/14 10:21:46;;;;;;;12.20;9.05;;;8.60;99.90;;;;;;5106053;28;20024;-61
2023/12/14 10:24:12;;;;;;;9.15;7.20;;;8.70;99.90;;;;;;5100250;28;20035;-61
2023/12/14 10:26:37;;;;;;;9.45;7.28;;;8.80;99.90;;;;;;5101560;28;20103;-61
2023/12/14 10:29:04;;;;;;;13.77;8.45;;;8.90;99.90;;;;;;5097827;28;20024;-61
2023/12/14 10:31:31;;;;;;;10.23;7.43;;;9.00;99.90;;;;;;5102420;28;20039;-61
2023/12/14 10:33:56;;;;;;;10.77;7.45;;;;;;;;;;5108205;28;20028;-61
2023/12/14 10:36:25;;;;;;;13.60;6.95;;;;;;;;;;5100469;28;20031;-61
2023/12/14 10:38:53;;;;;;;8.82;7.40;;;;;;;;;;5108317;27;20080;-61
2023/12/14 10:41:19;;;;;;;11.23;7.07;;;;;;;;;;5092865;28;20560;-61
2023/12/14 10:43:46;;;;;;;12.68;6.70;;;;;;;;;;5104739;28;20472;-61
2023/12/14 10:46:13;;;;;;;11.23;6.63;;;;;;;;;;5116380;27;20022;-61
2023/12/14 10:48:43;;;;;;;10.95;6.68;;;;;;;;;;5077728;28;20477;-61
2023/12/14 10:51:10;;;;;;;14.63;5.93;;;;;;;;;;5099652;28;20480;-61
2023/12/14 10:53:37;;;;;;;9.02;4.93;;;;;;;;;;5109943;28;20042;-60
2023/12/14 10:56:09;;;;;;;12.40;6.88;;;;;;;;;;5109862;28;20473;-63
2023/12/14 10:58:48;;;;;;;9.65;6.35;;;;;;;;;;5094948;27;20016;-61
2023/12/14 11:01:16;;;;;;;10.10;6.40;;;;;;;;;;5098844;28;20031;-61
2023/12/14 11:03:43;;;;;;;9.15;6.20;;;;;;;;;;5089887;28;20035;-61
2023/12/14 11:06:28;;;;;;;9.65;7.10;;;;;;;;;;5099373;28;20059;-61
2023/12/14 11:08:56;;;;;;;9.90;6.03;;;;;;;;;;5100663;28;20020;-61
2023/12/14 11:11:22;;;;;;;12.63;6.97;;;;;;;;;;5099944;28;20034;-61
2023/12/14 11:13:53;;;;;;;8.05;5.85;;;;;;;;;;5104713;28;20016;-61
2023/12/14 11:16:23;;;;;;;12.43;6.38;;;;;;;;;;5105622;28;20059;-61
2023/12/14 11:18:49;;;;;;;12.23;6.85;;;;;;;;;;5108318;28;20147;-61
2023/12/14 11:21:24;;;;;;;12.40;7.07;;;;;;;;;;5095990;28;20035;-61
2023/12/14 11:23:51;;;;;;;8.65;6.30;;;;;;;;;;5104676;28;20084;-62
2023/12/14 11:26:28;;;;;;;10.68;7.05;;;;;;;;;;5097986;28;20500;-62
2023/12/14 11:28:54;;;;;;;8.27;6.13;;;;;;;;;;5097217;28;20063;-61
2023/12/14 11:31:20;;;;;;;10.52;6.68;;;;;;;;;;5109433;28;20047;-61
2023/12/14 11:33:47;;;;;;;11.80;6.68;;;;;;;;;;5105737;28;20431;-61
2023/12/14 11:36:14;;;;;;;10.85;6.63;;;;;;;;;;5109209;28;20016;-61
2023/12/14 11:38:40;;;;;;;14.00;6.78;;;;;;;;;;5097889;28;20055;-61
2023/12/14 11:41:07;;;;;;;11.60;6.43;;;;;;;;;;5109694;28;20058;-62
2023/12/14 11:43:43;;;;;;;9.23;6.78;;;;;;;;;;5104383;28;20039;-62
2023/12/14 11:46:09;;;;;;;10.63;5.97;;;;;;;;;;5105687;28;20024;-61
2023/12/14 11:48:35;;;;;;;7.50;5.45;;;;;;;;;;5098352;28;20028;-62
2023/12/14 11:51:02;;;;;;;11.35;5.35;;;;;;;;;;5109678;28;20077;-62
2023/12/14 11:53:28;;;;;;;8.82;6.05;;;;;;;;;;5111126;28;20024;-62
2023/12/14 11:55:54;;;;;;;8.73;5.88;;;;;;;;;;5114633;28;20027;-62
2023/12/14 11:58:20;;;;;;;6.20;5.20;;;;;;;;;;5102723;27;20050;-62
2023/12/14 12:00:47;;;;;;;9.75;4.72;;;;;;;;;;5114514;28;20105;-61
2023/12/14 12:03:17;;;;;;;11.57;5.70;;;;;;;;;;5110196;28;20023;-62
2023/12/14 12:05:44;;;;;;;10.85;5.20;;;;;;;;;;5112394;28;20023;-62
2023/12/14 12:08:10;;;;;;;7.25;4.70;;;;;;;;;;5104291;28;20028;-62
2023/12/14 12:10:40;;;;;;;6.10;4.35;;;;;;;;;;5108908;28;20081;-62
2023/12/14 12:13:07;;;;;;;7.90;3.97;;;;;;;;;;5103612;28;20143;-62
2023/12/14 12:15:35;;;;;;;3.22;2.15;;;;;;;;;;5105569;28;20108;-62
2023/12/14 12:18:09;;;;;;;7.15;2.90;;;;;;;;;;5108085;28;20059;-62
2023/12/14 12:20:35;;;;;;;2.00;1.80;;;;;;;;;;5100413;28;20384;-61
2023/12/14 12:23:02;;;;;;;4.60;2.30;;;;;;;;;;5104495;28;20119;-64
2023/12/14 12:25:28;;;;;;;5.85;2.13;;;;;;;;;;5109978;28;20058;-62
2023/12/14 12:27:55;;;;;;;2.65;1.95;;;;;;;;;;5104520;28;20027;-64
2023/12/14 12:30:22;;;;;;;2.08;1.60;;;;;;;;;;5110244;28;20039;-62
2023/12/14 12:32:48;;;;;;;4.47;2.08;;;;;;;;;;5105570;28;20491;-61
2023/12/14 12:35:14;;;;;;;2.00;1.67;;;;;;;;;;5112681;28;20020;-62
2023/12/14 12:37:40;;;;;;;3.30;2.20;;;;;;;;;;5108861;28;20434;-62
2023/12/14 12:40:07;;;;;;;1.83;1.55;;;;;;;;;;5112718;28;20035;-62
2023/12/14 12:42:33;;;;;;;4.15;1.70;;;;;;;;;;5097121;28;20480;-62
2023/12/14 12:45:00;;;;;;;2.92;1.60;;;;;;;;;;5106772;28;20028;-62
2023/12/14 12:47:26;;;;;;;3.63;2.03;;;;;;;;;;5101327;28;20060;-62
2023/12/14 12:49:52;;;;;;;3.20;2.08;;;;;;;;;;5101727;28;20531;-63
2023/12/14 12:52:18;;;;;;;3.33;2.20;;;;;;;;;;5108874;28;20019;-63
2023/12/14 12:54:44;;;;;;;8.32;2.22;;;;;;;;;;5097405;28;20099;-63
2023/12/14 12:57:10;;;;;;;3.83;2.47;;;;;;;;;;5107420;28;20536;-62
2023/12/14 12:59:36;;;;;;;4.20;1.42;;;;;;;;;;5105005;28;20055;-63
2023/12/14 13:02:02;;;;;;;3.75;2.00;;;;;;;;;;5112458;28;20058;-63
2023/12/14 13:04:30;;;;;;;5.13;1.88;;;;;;;;;;5096206;28;20024;-63
2023/12/14 13:06:56;;;;;;;2.33;1.60;;;;;;;;;;5113113;28;20064;-63